Time;durP1;ratioP1;P1;durP2;ratioP2;P2;SDS_P1;SDS_P2;PMS_P1;PMS_P2;Temp;Humidity;BMP_temperature;BMP_pressure;BME280_temperature;BME280_humidity;BME280_pressure;Samples;Min_cycle;Max_cycle;Signal;HPM_P1;HPM_P2
2023/04/05 00:01:29;;;;;;;23.70;14.25;;;;;;;-0.44;83.33;94751.69;5114146;28;20036;-76
2023/04/05 00:03:59;;;;;;;21.30;12.45;;;;;;;-0.72;82.81;94706.31;5094771;28;20041;-76
2023/04/05 00:06:28;;;;;;;24.88;13.40;;;;;;;-0.21;82.54;94777.13;5113586;28;20081;-76
2023/04/05 00:08:58;;;;;;;23.08;14.15;;;;;;;-0.14;82.93;94769.25;5094454;28;20590;-76
2023/04/05 00:11:31;;;;;;;19.27;12.90;;;;;;;-0.23;82.02;94779.16;5113034;28;20031;-75
2023/04/05 00:14:01;;;;;;;22.25;12.80;;;;;;;-0.26;82.50;94768.38;5114812;27;20048;-76
2023/04/05 00:16:27;;;;;;;20.67;12.65;;;;;;;-0.31;82.65;94770.84;5082649;28;20461;-76
2023/04/05 00:18:55;;;;;;;22.20;13.52;;;;;;;-0.63;82.98;94712.84;5094220;28;20050;-76
2023/04/05 00:21:22;;;;;;;19.75;12.45;;;;;;;-0.94;82.63;94666.88;5077075;28;20035;-76
2023/04/05 00:23:57;;;;;;;23.63;14.70;;;;;;;-0.26;82.91;94763.16;5112063;28;20039;-76
2023/04/05 00:26:23;;;;;;;22.45;14.07;;;;;;;-0.36;83.31;94779.28;5094254;28;20600;-76
2023/04/05 00:28:49;;;;;;;25.08;14.05;;;;;;;-0.22;83.17;94764.31;5112073;28;20486;-75
2023/04/05 00:31:15;;;;;;;19.30;12.13;;;;;;;-0.31;82.35;94768.22;5094227;28;20042;-76
2023/04/05 00:33:41;;;;;;;21.95;12.60;;;;;;;-0.45;82.43;94724.06;5112715;28;20489;-76
2023/04/05 00:36:10;;;;;;;21.67;13.75;;;;;;;-0.16;82.18;94766.06;5077617;28;20039;-76
2023/04/05 00:38:36;;;;;;;21.52;12.63;;;;;;;-0.26;81.95;94745.72;5094386;28;20470;-76
2023/04/05 00:41:02;;;;;;;18.38;11.52;;;;;;;-0.69;81.53;94675.44;5093878;28;20035;-76
2023/04/05 00:43:28;;;;;;;19.88;11.48;;;;;;;-0.17;81.20;94736.59;5112504;28;20040;-76
2023/04/05 00:45:53;;;;;;;27.23;14.68;;;;;;;-0.34;80.92;94685.28;5112839;28;20100;-76
2023/04/05 00:48:19;;;;;;;17.30;11.32;;;;;;;-1.24;79.77;94541.84;5093740;28;20043;-76
2023/04/05 00:50:48;;;;;;;17.83;10.93;;;;;;;0.16;79.60;94774.50;5093967;28;20511;-76
2023/04/05 00:53:17;;;;;;;15.18;10.27;;;;;;;-0.19;80.16;94741.22;5112298;28;20482;-76
2023/04/05 00:55:43;;;;;;;17.40;11.30;;;;;;;-0.69;80.56;94656.41;5112367;28;20070;-76
2023/04/05 00:58:09;;;;;;;18.90;10.32;;;;;;;-0.25;80.60;94738.69;5112591;28;20051;-76
2023/04/05 01:00:38;;;;;;;15.95;9.85;;;;;;;-0.57;80.28;94685.94;5112245;28;20046;-77
2023/04/05 01:03:06;;;;;;;15.55;10.52;;;;;;;0.10;80.42;94778.00;5093935;28;20481;-76
2023/04/05 01:05:48;;;;;;;14.40;9.63;;;;;;;0.04;80.26;94773.66;5076437;28;20089;-76
2023/04/05 01:08:21;;;;;;;17.15;10.27;;;;;;;0.07;80.64;94775.84;5112349;28;20028;-76
2023/04/05 01:10:53;;;;;;;16.95;10.35;;;;;;;0.05;80.46;94785.69;5092560;28;20081;-76
2023/04/05 01:13:19;;;;;;;12.73;8.45;;;;;;;-0.06;80.27;94779.38;5112300;28;20023;-76
2023/04/05 01:15:45;;;;;;;15.65;9.88;;;;;;;-0.77;80.10;94667.13;5093931;28;20054;-76
2023/04/05 01:18:12;;;;;;;13.45;9.50;;;;;;;0.03;80.33;94772.06;5093784;28;20023;-76
2023/04/05 01:20:45;;;;;;;16.08;9.18;;;;;;;0.07;80.23;94801.91;5094085;28;20063;-76
2023/04/05 01:23:23;;;;;;;14.45;9.27;;;;;;;-0.02;80.56;94778.75;5112368;28;20132;-76
2023/04/05 01:26:31;;;;;;;14.60;10.05;;;;;;;-0.05;79.88;94786.97;5093329;28;20100;-76
2023/04/05 01:29:33;;;;;;;13.70;8.52;;;;;;;0.12;80.14;94791.63;5064108;28;20047;-76
2023/04/05 01:32:21;;;;;;;11.68;7.75;;;;;;;0.05;79.67;94788.28;5112138;28;20031;-77
2023/04/05 01:34:55;;;;;;;10.65;7.32;;;;;;;-0.41;79.73;94743.47;5111356;28;20039;-77
2023/04/05 01:37:30;;;;;;;12.13;7.63;;;;;;;-0.14;79.46;94774.44;5092929;28;20035;-77
2023/04/05 01:39:56;;;;;;;10.13;6.90;;;;;;;-0.07;79.52;94788.22;5092965;28;20103;-77
2023/04/05 01:42:26;;;;;;;14.85;7.55;;;;;;;-0.61;79.39;94695.19;5092883;28;20042;-77
2023/04/05 01:44:53;;;;;;;10.90;7.53;;;;;;;-0.08;79.46;94789.25;5092693;28;20122;-77
2023/04/05 01:47:19;;;;;;;12.05;8.15;;;;;;;-0.28;79.57;94744.34;5111262;28;20032;-77
2023/04/05 01:49:45;;;;;;;11.10;7.40;;;;;;;-0.58;79.55;94707.78;5092633;28;20055;-77
2023/04/05 01:52:10;;;;;;;10.10;7.05;;;;;;;-0.69;79.52;94701.47;5110953;28;20043;-77
2023/04/05 01:54:36;;;;;;;11.27;6.80;;;;;;;-0.68;79.56;94687.44;5092246;28;20031;-77
2023/04/05 01:57:01;;;;;;;10.77;7.05;;;;;;;-0.93;79.10;94647.63;5093016;28;20031;-76
2023/04/05 01:59:27;;;;;;;13.20;6.85;;;;;;;-0.44;79.18;94728.25;5111055;28;20479;-76
2023/04/05 02:01:52;;;;;;;9.23;6.57;;;;;;;-0.15;78.95;94770.25;5111368;28;20039;-76
2023/04/05 02:04:17;;;;;;;9.40;6.35;;;;;;;0.01;78.94;94787.91;5110820;28;20032;-76
2023/04/05 02:06:43;;;;;;;10.32;6.53;;;;;;;-0.51;78.97;94711.91;5092866;28;20035;-76
2023/04/05 02:09:08;;;;;;;8.93;6.10;;;;;;;-0.91;78.57;94697.66;5110795;28;20073;-76
2023/04/05 02:11:34;;;;;;;9.75;5.85;;;;;;;-0.41;79.07;94748.69;5111636;28;20043;-76
2023/04/05 02:13:59;;;;;;;8.23;5.78;;;;;;;-0.10;78.73;94784.25;5093287;28;20039;-76
2023/04/05 02:16:25;;;;;;;9.00;6.25;;;;;;;-0.10;78.85;94788.66;5112092;28;20430;-76
2023/04/05 02:18:56;;;;;;;8.90;5.55;;;;;;;-0.09;78.94;94795.47;5111648;28;20031;-76
2023/04/05 02:21:22;;;;;;;7.80;5.40;;;;;;;-0.95;79.19;94654.84;5090622;28;20046;-76
2023/04/05 02:23:48;;;;;;;7.13;5.50;;;;;;;-0.63;78.95;94724.06;5111020;28;20044;-76
2023/04/05 02:26:14;;;;;;;9.23;5.70;;;;;;;-0.55;79.29;94743.81;5110659;28;20031;-76
2023/04/05 02:28:40;;;;;;;9.23;5.47;;;;;;;-0.23;79.09;94807.81;5092818;28;20470;-75
2023/04/05 02:31:12;;;;;;;9.30;6.45;;;;;;;-0.19;79.50;94789.94;5110892;28;20471;-76
2023/04/05 02:33:38;;;;;;;13.80;6.97;;;;;;;-0.69;79.10;94698.88;5110898;28;20043;-75
2023/04/05 02:36:13;;;;;;;9.73;6.38;;;;;;;-0.12;79.36;94803.72;5110848;28;20027;-76
2023/04/05 02:38:39;;;;;;;8.45;6.07;;;;;;;-0.84;79.66;94714.81;5114737;28;20405;-76
2023/04/05 02:41:10;;;;;;;9.45;6.50;;;;;;;-0.60;79.48;94721.00;5114882;28;20024;-76
2023/04/05 02:43:36;;;;;;;9.10;5.97;;;;;;;-0.18;79.41;94788.94;5114780;28;20031;-75
2023/04/05 02:46:01;;;;;;;9.65;6.13;;;;;;;-0.13;79.38;94792.47;5114617;28;20144;-76
2023/04/05 02:48:27;;;;;;;10.98;7.15;;;;;;;-0.51;79.26;94719.72;5095947;28;20080;-76
2023/04/05 02:50:53;;;;;;;9.90;6.05;;;;;;;-0.20;79.42;94783.94;5114633;28;20131;-76
2023/04/05 02:53:19;;;;;;;14.20;6.72;;;;;;;-0.28;79.35;94775.59;5114550;28;20035;-76
2023/04/05 02:55:52;;;;;;;8.25;5.88;;;;;;;-0.35;79.12;94770.47;5114425;28;20032;-76
2023/04/05 02:58:17;;;;;;;9.98;6.63;;;;;;;-0.25;79.42;94765.56;5114452;28;20035;-76
2023/04/05 03:00:50;;;;;;;8.77;6.00;;;;;;;-0.50;78.83;94738.75;5095862;28;20036;-76
2023/04/05 03:03:20;;;;;;;12.07;6.18;;;;;;;-0.45;79.54;94760.53;5100850;28;20036;-76
2023/04/05 03:05:47;;;;;;;9.40;6.63;;;;;;;-1.41;79.65;94593.63;5093020;28;20040;-76
2023/04/05 03:08:17;;;;;;;8.75;6.30;;;;;;;-0.72;79.80;94698.50;5074607;28;20032;-76
2023/04/05 03:10:46;;;;;;;11.77;7.85;;;;;;;-0.15;79.79;94793.69;5093740;28;20036;-75
2023/04/05 03:13:15;;;;;;;10.98;7.32;;;;;;;-0.17;80.00;94793.16;5093317;28;20471;-75
2023/04/05 03:15:41;;;;;;;11.73;7.80;;;;;;;-0.34;80.16;94748.59;5069950;28;20417;-76
2023/04/05 03:18:06;;;;;;;11.75;7.22;;;;;;;-0.26;80.37;94789.22;5087376;28;20032;-76
2023/04/05 03:20:38;;;;;;;11.68;7.93;;;;;;;-0.18;80.48;94781.13;5073922;28;20142;-77
2023/04/05 03:23:05;;;;;;;10.85;6.63;;;;;;;-0.51;79.89;94726.72;5074309;28;20052;-76
2023/04/05 03:25:30;;;;;;;11.60;7.63;;;;;;;-0.06;80.12;94774.16;5092762;28;20040;-76
2023/04/05 03:27:56;;;;;;;12.38;7.80;;;;;;;-0.49;79.94;94703.88;5056802;28;20028;-75
2023/04/05 03:30:22;;;;;;;13.30;7.55;;;;;;;0.02;79.85;94794.72;5073515;28;20031;-76
2023/04/05 03:32:47;;;;;;;12.50;6.85;;;;;;;-0.01;79.93;94792.56;5098781;28;20024;-75
2023/04/05 03:35:15;;;;;;;12.75;6.70;;;;;;;-0.11;79.71;94768.81;5100263;28;20055;-76
2023/04/05 03:37:40;;;;;;;11.18;7.70;;;;;;;-0.03;79.96;94792.00;5100649;28;20409;-76
2023/04/05 03:40:09;;;;;;;9.82;6.88;;;;;;;-0.12;80.51;94783.66;5095971;28;20042;-78
2023/04/05 03:42:35;;;;;;;11.25;6.32;;;;;;;-0.28;80.16;94773.00;5091852;28;20040;-76
2023/04/05 03:45:00;;;;;;;7.22;5.72;;;;;;;-0.79;80.01;94699.38;5089947;28;20039;-76
2023/04/05 03:47:26;;;;;;;11.10;7.10;;;;;;;-0.58;81.02;94715.59;5090102;28;20039;-77
2023/04/05 03:49:52;;;;;;;12.35;7.97;;;;;;;-0.70;80.82;94699.09;5072149;28;20044;-76
2023/04/05 03:52:17;;;;;;;10.30;6.78;;;;;;;-0.31;81.48;94760.41;5091397;28;20426;-76
2023/04/05 03:54:42;;;;;;;9.30;6.47;;;;;;;-0.45;81.14;94767.53;5091094;28;20028;-76
2023/04/05 03:57:08;;;;;;;8.27;5.80;;;;;;;-0.43;81.98;94788.97;5089381;28;20123;-76
2023/04/05 03:59:33;;;;;;;9.70;6.70;;;;;;;-0.50;82.54;94773.41;5071337;28;20043;-76
2023/04/05 04:01:59;;;;;;;11.73;7.38;;;;;;;-0.20;83.44;94812.59;5072267;28;20032;-76
2023/04/05 04:04:24;;;;;;;9.90;7.20;;;;;;;-0.78;84.46;94707.97;5089956;28;20544;-76
2023/04/05 04:06:50;;;;;;;17.05;8.13;;;;;;;-0.33;85.08;94797.09;5088726;28;20040;-76
2023/04/05 04:09:16;;;;;;;12.48;8.40;;;;;;;-0.58;85.48;94752.84;5082776;28;20060;-76
2023/04/05 04:11:41;;;;;;;8.65;6.47;;;;;;;-0.49;84.49;94797.66;5085243;28;20166;-76
2023/04/05 04:14:07;;;;;;;10.63;7.28;;;;;;;-0.79;85.48;94761.84;5067303;28;20023;-76
2023/04/05 04:16:32;;;;;;;11.52;7.38;;;;;;;-0.55;86.11;94783.69;5081538;28;20157;-76
2023/04/05 04:18:58;;;;;;;10.85;7.63;;;;;;;-1.05;84.79;94740.44;5101185;27;20404;-77
2023/04/05 04:21:24;;;;;;;8.68;6.05;;;;;;;-0.87;85.43;94754.31;5077032;28;20837;-77
2023/04/05 04:23:51;;;;;;;13.93;6.85;;;;;;;-0.69;85.20;94782.22;5063718;28;20476;-76
2023/04/05 04:26:27;;;;;;;16.00;7.50;;;;;;;-0.52;84.98;94800.66;5069171;28;20070;-77
2023/04/05 04:28:54;;;;;;;11.18;7.90;;;;;;;-0.56;85.17;94796.91;5058440;28;20294;-76
2023/04/05 04:31:22;;;;;;;12.10;8.07;;;;;;;-0.84;85.98;94733.03;5059109;28;20040;-77
2023/04/05 04:33:50;;;;;;;10.00;7.60;;;;;;;-0.30;85.73;94840.16;5076120;28;20134;-76
2023/04/05 04:36:17;;;;;;;13.27;8.07;;;;;;;-0.47;85.44;94799.03;5074562;28;20069;-77
2023/04/05 04:38:43;;;;;;;10.82;7.50;;;;;;;-0.80;85.14;94756.84;5055500;28;20078;-77
2023/04/05 04:41:12;;;;;;;11.52;6.95;;;;;;;-0.56;85.47;94776.88;5080537;28;20459;-76
2023/04/05 04:43:41;;;;;;;9.70;7.18;;;;;;;-1.37;85.36;94659.81;5061201;28;20111;-78
2023/04/05 04:46:09;;;;;;;11.55;7.85;;;;;;;-0.32;85.70;94832.56;5058912;28;20154;-77
2023/04/05 04:48:36;;;;;;;11.35;5.57;;;;;;;-0.40;85.24;94836.25;5084127;28;20036;-77
2023/04/05 04:51:03;;;;;;;10.82;7.25;;;;;;;-0.49;85.54;94808.06;5050961;28;20046;-77
2023/04/05 04:53:28;;;;;;;9.80;6.32;;;;;;;-0.33;85.66;94823.16;5085860;28;20247;-78
2023/04/05 04:55:55;;;;;;;8.13;6.40;;;;;;;-0.92;84.32;94748.94;5081755;28;20156;-77
2023/04/05 04:58:20;;;;;;;8.43;5.22;;;;;;;-0.76;83.56;94771.03;5070128;28;20036;-77
2023/04/05 05:00:47;;;;;;;6.78;4.78;;;;;;;-1.02;83.47;94738.22;5084302;28;20640;-78
2023/04/05 05:03:12;;;;;;;7.13;4.32;;;;;;;-0.57;83.58;94816.94;5078869;28;20278;-77
2023/04/05 05:05:48;;;;;;;8.27;5.43;;;;;;;-0.90;83.71;94772.94;5065348;28;20599;-79
2023/04/05 05:08:15;;;;;;;8.40;5.85;;;;;;;-1.15;84.77;94693.28;5081480;28;20044;-79
2023/04/05 05:10:41;;;;;;;7.60;5.30;;;;;;;-0.83;83.50;94768.47;5066434;28;20148;-79
2023/04/05 05:13:06;;;;;;;6.40;4.82;;;;;;;-1.18;83.47;94704.91;5052054;28;20074;-79
2023/04/05 05:15:32;;;;;;;6.85;5.03;;;;;;;-1.01;83.78;94737.22;5060219;28;20194;-78
2023/04/05 05:17:57;;;;;;;6.82;4.70;;;;;;;-0.88;83.42;94767.53;5051672;28;20036;-78
2023/04/05 05:20:27;;;;;;;5.20;3.78;;;;;;;-0.46;82.87;94852.72;5058260;28;20125;-79
2023/04/05 05:22:53;;;;;;;7.45;4.65;;;;;;;-0.83;84.32;94780.69;5034464;28;20048;-78
2023/04/05 05:25:19;;;;;;;6.15;4.13;;;;;;;-1.30;82.88;94702.19;5042603;28;20857;-79
2023/04/05 05:27:48;;;;;;;7.90;4.85;;;;;;;-0.62;83.99;94779.53;5044796;28;20481;-78
2023/04/05 05:30:14;;;;;;;6.82;3.90;;;;;;;-0.62;83.12;94788.16;5024066;28;20527;-79
2023/04/05 05:32:40;;;;;;;6.32;3.95;;;;;;;-0.46;82.55;94816.25;5048018;28;20055;-78
2023/04/05 05:35:06;;;;;;;6.22;4.68;;;;;;;-0.54;82.53;94818.34;5031492;28;20070;-78
2023/04/05 05:37:33;;;;;;;6.13;4.22;;;;;;;-0.55;82.28;94808.94;5030982;28;20336;-81
2023/04/05 05:39:59;;;;;;;5.55;3.95;;;;;;;-0.23;82.19;94864.38;5042382;28;20799;-78
2023/04/05 05:42:25;;;;;;;6.18;4.18;;;;;;;-0.29;83.27;94845.16;5024703;28;20589;-79
2023/04/05 05:44:51;;;;;;;5.18;3.72;;;;;;;-0.20;82.73;94843.88;5021325;28;20119;-77
2023/04/05 05:47:16;;;;;;;4.20;3.05;;;;;;;-0.68;80.79;94798.59;5046012;28;20846;-78
2023/04/05 05:49:42;;;;;;;6.22;4.47;;;;;;;-0.87;81.62;94737.88;5018357;28;20047;-78
2023/04/05 05:52:07;;;;;;;6.25;3.63;;;;;;;-0.19;81.48;94848.09;5027293;28;20123;-78
2023/04/05 05:54:33;;;;;;;5.38;3.70;;;;;;;-0.80;81.02;94749.03;5045752;28;20039;-79
2023/04/05 05:56:58;;;;;;;4.57;3.60;;;;;;;-0.91;81.33;94702.88;5030727;28;20063;-78
2023/04/05 05:59:24;;;;;;;6.40;3.78;;;;;;;0.03;82.01;94845.06;5024125;28;20044;-79
2023/04/05 06:01:50;;;;;;;4.75;3.38;;;;;;;-0.23;80.48;94794.00;5022347;28;20934;-83
2023/04/05 06:04:16;;;;;;;4.78;3.83;;;;;;;-0.62;80.58;94715.22;5017162;28;20545;-78
2023/04/05 06:06:46;;;;;;;10.85;3.45;;;;;;;0.17;79.67;94856.94;5023311;28;20299;-77
2023/04/05 06:09:14;;;;;;;3.63;2.90;;;;;;;-0.62;78.70;94723.03;5016373;28;20036;-77
2023/04/05 06:11:40;;;;;;;7.13;3.45;;;;;;;-0.38;79.53;94782.09;5018755;28;20849;-77
2023/04/05 06:14:05;;;;;;;4.32;3.40;;;;;;;-0.08;78.53;94804.88;5018762;28;20528;-79
2023/04/05 06:16:31;;;;;;;6.70;3.28;;;;;;;0.27;79.71;94831.97;5034676;28;20764;-78
2023/04/05 06:18:56;;;;;;;8.13;3.30;;;;;;;0.28;80.19;94838.78;5045065;28;20036;-77
2023/04/05 06:21:23;;;;;;;5.32;2.78;;;;;;;-0.01;78.36;94785.56;5067135;28;20077;-78
2023/04/05 06:23:50;;;;;;;4.20;2.80;;;;;;;0.46;77.69;94851.00;5089982;28;20098;-79
2023/04/05 06:26:27;;;;;;;4.25;3.28;;;;;;;0.49;77.94;94839.34;5072251;28;20063;-78
2023/04/05 06:28:54;;;;;;;2.65;2.20;;;;;;;0.54;76.25;94855.13;5066277;28;20044;-77
2023/04/05 06:31:24;;;;;;;13.57;3.38;;;;;;;0.58;77.06;94862.31;5066768;28;20057;-78
2023/04/05 06:33:50;;;;;;;4.83;3.57;;;;;;;-0.04;77.30;94778.16;5056836;28;20046;-77
2023/04/05 06:36:15;;;;;;;5.68;2.60;;;;;;;0.30;76.81;94818.50;5083383;28;20024;-77
2023/04/05 06:38:41;;;;;;;4.35;2.70;;;;;;;0.54;76.22;94858.53;5059070;28;20047;-77
2023/04/05 06:41:06;;;;;;;8.38;3.65;;;;;;;-0.06;75.84;94763.75;5064412;28;20040;-79
2023/04/05 06:43:33;;;;;;;4.53;2.80;;;;;;;0.38;77.08;94812.19;5061565;28;20115;-79
2023/04/05 06:45:59;;;;;;;7.40;4.30;;;;;;;0.33;77.44;94791.97;5089652;28;20044;-78
2023/04/05 06:48:27;;;;;;;6.22;2.55;;;;;;;-0.23;75.31;94719.22;5059197;28;20035;-78
2023/04/05 06:50:59;;;;;;;5.57;3.00;;;;;;;0.27;75.99;94785.03;5082111;28;20042;-78
2023/04/05 06:53:26;;;;;;;6.07;2.70;;;;;;;0.33;75.29;94814.66;5059936;28;20207;-79
2023/04/05 06:55:53;;;;;;;8.15;2.90;;;;;;;0.65;75.65;94875.28;5061401;28;20038;-80
2023/04/05 06:58:18;;;;;;;4.45;3.17;;;;;;;0.44;75.85;94821.75;5066845;28;20139;-81
2023/04/05 07:00:45;;;;;;;6.00;2.53;;;;;;;0.93;75.64;94888.59;5072336;28;20087;-80
2023/04/05 07:03:11;;;;;;;5.95;3.30;;;;;;;0.08;75.03;94739.09;5070889;28;20562;-86
2023/04/05 07:05:36;;;;;;;6.18;2.72;;;;;;;0.54;73.86;94819.41;5092781;28;20112;-78
2023/04/05 07:08:02;;;;;;;5.80;2.35;;;;;;;0.73;74.71;94883.63;5086313;28;20035;-78
2023/04/05 07:10:27;;;;;;;3.92;2.25;;;;;;;0.32;74.90;94798.19;5072837;28;20167;-78
2023/04/05 07:12:53;;;;;;;7.53;3.22;;;;;;;0.71;74.92;94830.03;5078159;28;21046;-77
2023/04/05 07:15:18;;;;;;;9.63;2.42;;;;;;;0.80;74.24;94875.69;5068878;28;20778;-77
2023/04/05 07:17:44;;;;;;;2.88;2.40;;;;;;;0.53;74.11;94832.69;5061655;28;20108;-78
2023/04/05 07:20:10;;;;;;;3.75;2.67;;;;;;;1.01;74.03;94922.22;5057838;28;20094;-77
2023/04/05 07:22:35;;;;;;;4.85;2.47;;;;;;;0.52;73.84;94821.44;5051619;28;20063;-77
2023/04/05 07:25:01;;;;;;;2.47;2.05;;;;;;;-0.14;72.44;94749.19;5056735;28;20032;-77
2023/04/05 07:27:29;;;;;;;2.55;2.22;;;;;;;0.70;74.12;94862.38;5059880;28;20553;-77
2023/04/05 07:29:55;;;;;;;7.97;3.35;;;;;;;1.00;74.36;94933.69;5056170;28;20157;-78
2023/04/05 07:32:20;;;;;;;5.82;3.05;;;;;;;0.44;72.77;94870.53;5061173;28;20040;-78
2023/04/05 07:34:46;;;;;;;8.55;2.50;;;;;;;0.21;73.07;94829.44;5060323;28;20042;-78
2023/04/05 07:37:12;;;;;;;3.83;2.60;;;;;;;0.86;73.05;94913.97;5059663;28;20040;-77
2023/04/05 07:39:38;;;;;;;4.95;2.72;;;;;;;0.91;73.86;94936.84;5059945;28;20032;-79
2023/04/05 07:42:04;;;;;;;2.97;2.38;;;;;;;0.43;72.27;94874.13;5063856;28;20038;-77
2023/04/05 07:44:29;;;;;;;7.03;2.78;;;;;;;0.39;74.56;94843.25;5059273;28;20083;-78
2023/04/05 07:46:55;;;;;;;6.00;3.10;;;;;;;0.60;74.07;94862.09;5063498;28;20589;-78
2023/04/05 07:49:25;;;;;;;5.00;2.50;;;;;;;0.83;73.48;94906.59;5064206;28;20502;-79
2023/04/05 07:51:54;;;;;;;4.43;3.03;;;;;;;0.71;73.39;94890.88;5082562;27;20055;-77
2023/04/05 07:54:19;;;;;;;3.35;2.67;;;;;;;0.79;74.67;94897.59;5047284;28;20032;-77
2023/04/05 07:56:45;;;;;;;5.05;2.63;;;;;;;1.07;73.79;94934.41;5056153;28;20089;-81
2023/04/05 07:59:12;;;;;;;4.00;2.40;;;;;;;0.59;73.94;94850.06;5062145;28;21514;-79
2023/04/05 08:01:37;;;;;;;5.10;2.80;;;;;;;0.43;73.25;94829.78;5063547;28;20117;-77
2023/04/05 08:04:02;;;;;;;5.50;3.10;;;;;;;0.51;73.82;94832.91;5062638;27;20390;-79
2023/04/05 08:06:28;;;;;;;8.35;3.45;;;;;;;0.37;72.60;94821.03;5085291;27;20690;-77
2023/04/05 08:08:53;;;;;;;9.10;2.88;;;;;;;0.65;72.82;94855.22;5077778;28;20035;-77
2023/04/05 08:11:20;;;;;;;3.63;2.72;;;;;;;0.42;72.86;94829.00;5058728;27;20057;-76
2023/04/05 08:13:46;;;;;;;4.28;2.85;;;;;;;1.26;72.96;94942.22;5063990;27;20502;-76
2023/04/05 08:16:11;;;;;;;6.85;2.88;;;;;;;0.98;72.68;94914.03;5057408;28;20019;-78
2023/04/05 08:18:37;;;;;;;3.55;2.55;;;;;;;0.27;71.49;94829.38;5076897;27;20395;-77
2023/04/05 08:21:03;;;;;;;5.70;2.92;;;;;;;-0.05;71.53;94768.75;5077790;27;20035;-77
2023/04/05 08:23:28;;;;;;;4.25;3.38;;;;;;;-0.11;71.90;94761.78;5082202;27;20122;-78
2023/04/05 08:25:54;;;;;;;4.68;2.47;;;;;;;0.36;71.26;94853.34;5081462;28;20036;-78
2023/04/05 08:28:20;;;;;;;4.47;3.25;;;;;;;0.58;72.37;94856.31;5063258;28;20038;-78
2023/04/05 08:30:46;;;;;;;5.05;2.83;;;;;;;0.88;72.84;94914.56;5065499;28;20096;-77
2023/04/05 08:33:11;;;;;;;3.65;2.88;;;;;;;0.53;72.12;94882.25;5084720;27;20464;-77
2023/04/05 08:35:37;;;;;;;4.20;2.85;;;;;;;1.22;72.62;94965.34;5066705;28;20024;-76
2023/04/05 08:38:04;;;;;;;5.85;4.15;;;;;;;0.13;71.64;94812.28;5084189;28;20057;-77
2023/04/05 08:40:42;;;;;;;6.57;2.85;;;;;;;0.48;72.56;94862.03;5058572;28;21158;-77
2023/04/05 08:43:43;;;;;;;9.57;2.75;;;;;;;1.12;72.02;94972.94;5080008;28;20039;-78
2023/04/05 08:46:11;;;;;;;3.80;2.97;;;;;;;0.33;72.61;94843.34;5084800;27;20047;-80
2023/04/05 08:48:36;;;;;;;7.00;2.72;;;;;;;-0.05;73.00;94802.63;5081992;27;20036;-79
2023/04/05 08:51:02;;;;;;;5.35;2.60;;;;;;;0.45;72.27;94890.38;5070118;28;20058;-80
2023/04/05 08:53:29;;;;;;;2.33;2.13;;;;;;;0.91;72.82;94968.16;5079112;28;20059;-79
2023/04/05 08:55:55;;;;;;;6.85;2.50;;;;;;;0.90;74.28;94962.16;5069586;28;20016;-79
2023/04/05 08:58:23;;;;;;;4.13;2.90;;;;;;;0.03;74.42;94806.75;5064821;28;20077;-79
2023/04/05 09:00:52;;;;;;;7.00;2.72;;;;;;;0.57;74.41;94907.69;5085734;28;20043;-79
2023/04/05 09:03:22;;;;;;;4.45;2.63;;;;;;;0.84;74.23;94936.88;5088034;27;20581;-79
2023/04/05 09:05:50;;;;;;;5.20;3.47;;;;;;;1.14;74.63;94987.34;5089276;28;20035;-80
2023/04/05 09:08:16;;;;;;;6.15;2.97;;;;;;;1.19;74.82;95007.59;5070992;28;20627;-82
2023/04/05 09:10:43;;;;;;;4.30;3.15;;;;;;;1.01;74.64;94963.22;5082433;27;20528;-79
2023/04/05 09:13:08;;;;;;;5.82;3.08;;;;;;;1.29;74.67;94991.41;5080370;27;20496;-78
2023/04/05 09:15:37;;;;;;;5.70;3.38;;;;;;;1.32;74.08;94996.97;5079136;28;20140;-78
2023/04/05 09:18:04;;;;;;;26.42;4.57;;;;;;;0.26;73.54;94837.41;5073988;27;20048;-76
2023/04/05 09:20:30;;;;;;;8.20;3.42;;;;;;;1.17;73.91;94954.78;5055731;28;20039;-78
2023/04/05 09:22:56;;;;;;;5.32;3.83;;;;;;;1.51;72.50;94993.34;5060633;28;20469;-80
2023/04/05 09:25:30;;;;;;;6.03;3.17;;;;;;;1.20;71.23;95003.97;5054446;28;20059;-80
2023/04/05 09:27:57;;;;;;;4.95;2.90;;;;;;;0.77;71.53;94916.09;5081592;28;20054;-81
2023/04/05 09:30:26;;;;;;;5.55;3.30;;;;;;;1.31;70.79;95000.59;5053976;28;20063;-77
2023/04/05 09:32:53;;;;;;;3.78;2.97;;;;;;;1.24;70.39;95014.78;5064263;28;20169;-81
2023/04/05 09:35:24;;;;;;;4.45;3.28;;;;;;;0.23;69.98;94854.28;5066908;28;20147;-79
2023/04/05 09:37:54;;;;;;;7.00;3.55;;;;;;;1.33;70.76;94987.34;5057337;28;20138;-80
2023/04/05 09:40:20;;;;;;;5.40;3.80;;;;;;;0.94;70.51;94876.31;5060300;28;20028;-78
2023/04/05 09:42:46;;;;;;;5.50;3.80;;;;;;;1.81;69.79;94968.97;5059301;28;20482;-80
2023/04/05 09:45:13;;;;;;;4.95;2.88;;;;;;;1.83;68.33;94991.25;5062229;27;20039;-79
2023/04/05 09:48:08;;;;;;;5.45;4.20;;;;;;;1.53;68.19;94944.22;5081280;28;20043;-89
2023/04/05 09:50:34;;;;;;;4.05;3.00;;;;;;;1.43;67.44;94936.16;5078398;28;20424;-76
2023/04/05 09:53:06;;;;;;;5.53;3.78;;;;;;;1.94;67.66;94974.81;5064588;28;20052;-79
2023/04/05 09:55:32;;;;;;;5.85;3.53;;;;;;;1.73;67.09;94896.91;5056117;28;20717;-78
2023/04/05 09:58:03;;;;;;;6.93;4.05;;;;;;;1.43;65.95;94877.88;5083720;28;20030;-83
2023/04/05 10:00:31;;;;;;;6.50;4.05;;;;;;;2.35;66.44;94975.78;5054371;28;20066;-78
2023/04/05 10:02:56;;;;;;;6.30;3.50;;;;;;;1.97;65.54;94949.25;5065436;28;20039;-78
2023/04/05 10:05:28;;;;;;;8.75;4.57;;;;;;;2.08;64.71;94920.47;5078507;28;20038;-78
2023/04/05 10:07:55;;;;;;;7.07;4.72;;;;;;;2.28;64.23;94939.25;5068780;28;20031;-77
2023/04/05 10:10:22;;;;;;;8.88;4.53;;;;;;;2.24;63.55;94947.78;5082300;28;20413;-77
2023/04/05 10:12:50;;;;;;;5.60;4.10;;;;;;;1.52;62.63;94898.22;5082837;28;20051;-82
2023/04/05 10:15:26;;;;;;;;;;;;;;;;;;;;;
2023/04/05 10:18:02;;;;;;;7.53;4.28;;;;;;;2.16;63.45;95009.06;5085161;28;20031;-77
2023/04/05 10:20:32;;;;;;;6.25;3.95;;;;;;;2.10;62.62;94960.28;5068450;28;20661;-78
2023/04/05 10:23:04;;;;;;;7.28;4.30;;;;;;;2.71;61.19;95006.97;5043585;28;20048;-79
2023/04/05 10:25:51;;;;;;;8.20;4.60;;;;;;;3.18;61.16;94987.75;5054875;28;20032;-76
2023/04/05 10:28:34;;;;;;;8.52;5.05;;;;;;;3.60;58.76;94996.97;5063432;28;20032;-82
2023/04/05 10:31:27;;;;;;;7.03;4.63;;;;;;;3.59;58.66;95003.22;5059458;28;20126;-77
2023/04/05 10:34:02;;;;;;;9.25;4.63;;;;;;;2.82;59.15;94946.97;5055513;28;20583;-76
2023/04/05 10:36:52;;;;;;;8.25;6.15;;;;;;;3.09;59.75;94998.59;5053289;28;20036;-77
2023/04/05 10:39:26;;;;;;;8.75;4.53;;;;;;;3.31;59.67;94977.81;5077135;28;20039;-76
2023/04/05 10:41:53;;;;;;;8.15;5.60;;;;;;;3.54;59.29;94999.72;5064982;28;20028;-77
2023/04/05 10:44:19;;;;;;;10.45;5.70;;;;;;;2.39;59.26;94798.94;5062529;28;20035;-77
2023/04/05 10:46:45;;;;;;;12.02;5.72;;;;;;;3.57;58.73;94994.03;5078441;28;20088;-76
2023/04/05 10:49:35;;;;;;;7.05;4.93;;;;;;;3.25;58.24;94949.13;5079944;28;20051;-76
2023/04/05 10:52:01;;;;;;;8.10;5.95;;;;;;;3.70;59.25;94997.16;5079765;28;20591;-76
2023/04/05 10:54:31;;;;;;;10.02;5.95;;;;;;;3.74;58.11;94986.97;5063425;28;20028;-76
2023/04/05 10:56:57;;;;;;;10.02;5.53;;;;;;;3.94;56.90;94995.22;5084681;28;21740;-76
2023/04/05 10:59:25;;;;;;;8.57;6.45;;;;;;;3.85;56.89;95015.00;5073661;28;20539;-77
2023/04/05 11:01:52;;;;;;;7.80;5.32;;;;;;;3.00;57.16;94869.00;5085316;27;20051;-76
2023/04/05 11:04:17;;;;;;;6.53;5.00;;;;;;;3.41;56.58;94930.03;5072048;27;20039;-78
2023/04/05 11:06:46;;;;;;;11.77;4.63;;;;;;;3.37;56.78;94934.13;5080947;27;20180;-77
2023/04/05 11:09:19;;;;;;;6.53;4.93;;;;;;;3.29;57.79;94992.16;5065950;28;20702;-77
2023/04/05 11:11:47;;;;;;;10.20;5.35;;;;;;;3.17;59.47;95030.72;5081794;27;20032;-78
2023/04/05 11:14:38;;;;;;;6.85;5.22;;;;;;;3.37;58.24;95005.69;5070204;27;20055;-79
2023/04/05 11:19:53;;;;;;;9.57;5.88;;;;;;;4.66;54.89;95025.00;5075988;27;20309;-79
2023/04/05 11:22:26;;;;;;;7.13;5.38;;;;;;;4.17;54.99;94926.84;5061939;28;20042;-78
2023/04/05 11:25:01;;;;;;;6.15;4.65;;;;;;;4.76;54.03;95005.97;5062515;28;20027;-76
2023/04/05 11:27:33;;;;;;;7.28;5.35;;;;;;;4.74;53.84;94981.75;5079029;27;20028;-77
2023/04/05 11:30:00;;;;;;;23.40;9.10;;;;;;;4.80;53.52;94988.69;5065226;27;20173;-77
2023/04/05 11:32:42;;;;;;;6.45;4.90;;;;;;;3.80;54.66;94938.84;5084764;27;20039;-78
2023/04/05 11:35:22;;;;;;;7.88;5.68;;;;;;;3.94;55.21;95025.91;5064614;28;20024;-77
2023/04/05 11:37:59;;;;;;;8.38;5.43;;;;;;;3.57;56.96;94996.66;5070111;28;20038;-78
2023/04/05 11:40:35;;;;;;;8.25;5.60;;;;;;;3.57;56.10;95001.91;5085881;27;20036;-78
2023/04/05 11:43:06;;;;;;;9.82;5.55;;;;;;;3.41;55.69;94996.34;5083412;27;20118;-78